sensor_id;sensor_type;location;lat;lon;timestamp;temperature;humidity
58529;DHT22;44322;52.968;5.816;2022-08-07T00:00:53;14.40;99.90
58529;DHT22;44322;52.968;5.816;2022-08-07T00:03:20;14.40;99.90
58529;DHT22;44322;52.968;5.816;2022-08-07T00:05:49;14.40;99.90
58529;DHT22;44322;52.968;5.816;2022-08-07T00:08:17;14.40;99.90
58529;DHT22;44322;52.968;5.816;2022-08-07T00:10:43;14.30;99.90
58529;DHT22;44322;52.968;5.816;2022-08-07T00:13:09;14.30;99.90
58529;DHT22;44322;52.968;5.816;2022-08-07T00:15:36;14.30;99.90
58529;DHT22;44322;52.968;5.816;2022-08-07T00:18:02;14.20;99.90
58529;DHT22;44322;52.968;5.816;2022-08-07T00:20:28;14.20;99.90
58529;DHT22;44322;52.968;5.816;2022-08-07T00:22:54;14.20;99.90
58529;DHT22;44322;52.968;5.816;2022-08-07T00:25:20;14.20;99.90
58529;DHT22;44322;52.968;5.816;2022-08-07T00:27:46;14.10;99.90
58529;DHT22;44322;52.968;5.816;2022-08-07T00:30:12;14.10;99.90
58529;DHT22;44322;52.968;5.816;2022-08-07T00:32:38;14.10;99.90
58529;DHT22;44322;52.968;5.816;2022-08-07T00:35:04;14.10;99.90
58529;DHT22;44322;52.968;5.816;2022-08-07T00:41:30;14.00;99.90
58529;DHT22;44322;52.968;5.816;2022-08-07T00:43:57;14.00;99.90
58529;DHT22;44322;52.968;5.816;2022-08-07T00:46:22;14.00;99.90
58529;DHT22;44322;52.968;5.816;2022-08-07T00:48:48;13.90;99.90
58529;DHT22;44322;52.968;5.816;2022-08-07T00:51:14;13.90;99.90
58529;DHT22;44322;52.968;5.816;2022-08-07T00:53:40;13.90;99.90
58529;DHT22;44322;52.968;5.816;2022-08-07T00:56:06;13.90;99.90
58529;DHT22;44322;52.968;5.816;2022-08-07T00:58:32;13.90;99.90
58529;DHT22;44322;52.968;5.816;2022-08-07T01:00:58;13.90;99.90
58529;DHT22;44322;52.968;5.816;2022-08-07T01:03:24;13.90;99.90
58529;DHT22;44322;52.968;5.816;2022-08-07T01:05:52;13.80;99.90
58529;DHT22;44322;52.968;5.816;2022-08-07T01:08:20;13.80;99.90
58529;DHT22;44322;52.968;5.816;2022-08-07T01:10:47;13.80;99.90
58529;DHT22;44322;52.968;5.816;2022-08-07T01:13:13;13.80;99.90
58529;DHT22;44322;52.968;5.816;2022-08-07T01:15:39;13.80;99.90
58529;DHT22;44322;52.968;5.816;2022-08-07T01:18:06;13.80;99.90
58529;DHT22;44322;52.968;5.816;2022-08-07T01:20:36;13.80;99.90
58529;DHT22;44322;52.968;5.816;2022-08-07T01:23:04;13.70;99.90
58529;DHT22;44322;52.968;5.816;2022-08-07T01:25:31;13.70;99.90
58529;DHT22;44322;52.968;5.816;2022-08-07T01:27:58;13.70;99.90
58529;DHT22;44322;52.968;5.816;2022-08-07T01:30:25;13.70;99.90
58529;DHT22;44322;52.968;5.816;2022-08-07T01:32:51;13.70;99.90
58529;DHT22;44322;52.968;5.816;2022-08-07T01:35:18;13.70;99.90
58529;DHT22;44322;52.968;5.816;2022-08-07T01:37:46;13.70;99.90
58529;DHT22;44322;52.968;5.816;2022-08-07T01:40:13;13.80;99.90
58529;DHT22;44322;52.968;5.816;2022-08-07T01:42:50;13.80;99.90
58529;DHT22;44322;52.968;5.816;2022-08-07T01:45:16;13.80;99.90
58529;DHT22;44322;52.968;5.816;2022-08-07T01:47:49;13.80;99.90
58529;DHT22;44322;52.968;5.816;2022-08-07T01:50:18;13.80;99.90
58529;DHT22;44322;52.968;5.816;2022-08-07T01:52:44;13.80;99.90
58529;DHT22;44322;52.968;5.816;2022-08-07T01:55:13;13.80;99.90
58529;DHT22;44322;52.968;5.816;2022-08-07T01:57:41;13.70;99.90
58529;DHT22;44322;52.968;5.816;2022-08-07T02:00:11;13.70;99.90
58529;DHT22;44322;52.968;5.816;2022-08-07T02:02:52;13.70;99.90
58529;DHT22;44322;52.968;5.816;2022-08-07T02:05:25;13.70;99.90
58529;DHT22;44322;52.968;5.816;2022-08-07T02:07:53;13.70;99.90
58529;DHT22;44322;52.968;5.816;2022-08-07T02:10:31;13.70;99.90
58529;DHT22;44322;52.968;5.816;2022-08-07T02:13:02;13.60;99.90
58529;DHT22;44322;52.968;5.816;2022-08-07T02:15:38;13.60;99.90
58529;DHT22;44322;52.968;5.816;2022-08-07T02:18:05;13.60;99.90
58529;DHT22;44322;52.968;5.816;2022-08-07T02:20:34;13.60;99.90
58529;DHT22;44322;52.968;5.816;2022-08-07T02:23:04;13.60;99.90
58529;DHT22;44322;52.968;5.816;2022-08-07T02:25:33;13.50;99.90
58529;DHT22;44322;52.968;5.816;2022-08-07T02:28:01;13.50;99.90
58529;DHT22;44322;52.968;5.816;2022-08-07T02:30:29;13.50;99.90
58529;DHT22;44322;52.968;5.816;2022-08-07T02:32:58;13.50;99.90
58529;DHT22;44322;52.968;5.816;2022-08-07T02:35:25;13.50;99.90
58529;DHT22;44322;52.968;5.816;2022-08-07T02:37:56;13.40;99.90
58529;DHT22;44322;52.968;5.816;2022-08-07T02:40:25;13.40;99.90
58529;DHT22;44322;52.968;5.816;2022-08-07T02:42:54;13.40;99.90
58529;DHT22;44322;52.968;5.816;2022-08-07T02:45:22;13.30;99.90
58529;DHT22;44322;52.968;5.816;2022-08-07T02:47:50;13.30;99.90
58529;DHT22;44322;52.968;5.816;2022-08-07T02:50:18;13.30;99.90
58529;DHT22;44322;52.968;5.816;2022-08-07T02:52:49;13.20;99.90
58529;DHT22;44322;52.968;5.816;2022-08-07T02:55:20;13.20;99.90
58529;DHT22;44322;52.968;5.816;2022-08-07T02:57:48;13.20;99.90
58529;DHT22;44322;52.968;5.816;2022-08-07T03:00:14;13.20;99.90
58529;DHT22;44322;52.968;5.816;2022-08-07T03:02:44;13.20;99.90
58529;DHT22;44322;52.968;5.816;2022-08-07T03:05:11;13.20;99.90
58529;DHT22;44322;52.968;5.816;2022-08-07T03:07:38;13.20;99.90
58529;DHT22;44322;52.968;5.816;2022-08-07T03:10:07;13.10;99.90
58529;DHT22;44322;52.968;5.816;2022-08-07T03:12:35;13.10;99.90
58529;DHT22;44322;52.968;5.816;2022-08-07T03:15:07;13.10;99.90
58529;DHT22;44322;52.968;5.816;2022-08-07T03:17:34;13.10;99.90
58529;DHT22;44322;52.968;5.816;2022-08-07T03:20:04;13.10;99.90
58529;DHT22;44322;52.968;5.816;2022-08-07T03:22:30;13.10;99.90
58529;DHT22;44322;52.968;5.816;2022-08-07T03:24:58;13.10;99.90
58529;DHT22;44322;52.968;5.816;2022-08-07T03:27:25;13.00;99.90
58529;DHT22;44322;52.968;5.816;2022-08-07T03:29:52;13.00;99.90
58529;DHT22;44322;52.968;5.816;2022-08-07T03:32:30;13.00;99.90
58529;DHT22;44322;52.968;5.816;2022-08-07T03:34:59;13.00;99.90
58529;DHT22;44322;52.968;5.816;2022-08-07T03:37:30;13.00;99.90
58529;DHT22;44322;52.968;5.816;2022-08-07T03:39:57;13.00;99.90
58529;DHT22;44322;52.968;5.816;2022-08-07T03:42:24;13.00;99.90
58529;DHT22;44322;52.968;5.816;2022-08-07T03:44:51;12.90;99.90
58529;DHT22;44322;52.968;5.816;2022-08-07T03:47:18;12.90;99.90
58529;DHT22;44322;52.968;5.816;2022-08-07T03:49:46;12.90;99.90
58529;DHT22;44322;52.968;5.816;2022-08-07T03:52:15;12.90;99.90
58529;DHT22;44322;52.968;5.816;2022-08-07T03:54:41;12.90;99.90
58529;DHT22;44322;52.968;5.816;2022-08-07T03:57:10;12.90;99.90
58529;DHT22;44322;52.968;5.816;2022-08-07T03:59:39;12.90;99.90
58529;DHT22;44322;52.968;5.816;2022-08-07T04:02:07;12.90;99.90
58529;DHT22;44322;52.968;5.816;2022-08-07T04:04:34;12.80;99.90
58529;DHT22;44322;52.968;5.816;2022-08-07T04:07:04;12.80;99.90
58529;DHT22;44322;52.968;5.816;2022-08-07T04:09:32;12.80;99.90
58529;DHT22;44322;52.968;5.816;2022-08-07T04:12:00;12.80;99.90
58529;DHT22;44322;52.968;5.816;2022-08-07T04:14:27;12.80;99.90
58529;DHT22;44322;52.968;5.816;2022-08-07T04:16:54;12.80;99.90
58529;DHT22;44322;52.968;5.816;2022-08-07T04:19:21;12.80;99.90
58529;DHT22;44322;52.968;5.816;2022-08-07T04:21:51;12.80;99.90
58529;DHT22;44322;52.968;5.816;2022-08-07T04:24:18;12.80;99.90
58529;DHT22;44322;52.968;5.816;2022-08-07T04:26:45;12.80;99.90
58529;DHT22;44322;52.968;5.816;2022-08-07T04:29:11;12.80;99.90
58529;DHT22;44322;52.968;5.816;2022-08-07T04:31:38;12.80;99.90
58529;DHT22;44322;52.968;5.816;2022-08-07T04:34:06;12.80;99.90
58529;DHT22;44322;52.968;5.816;2022-08-07T04:36:32;12.80;99.90
58529;DHT22;44322;52.968;5.816;2022-08-07T04:39:04;12.90;99.90
58529;DHT22;44322;52.968;5.816;2022-08-07T04:41:30;12.90;99.90
58529;DHT22;44322;52.968;5.816;2022-08-07T04:43:57;12.90;99.90
58529;DHT22;44322;52.968;5.816;2022-08-07T04:49:29;12.90;99.90
58529;DHT22;44322;52.968;5.816;2022-08-07T04:57:56;13.00;99.90
58529;DHT22;44322;52.968;5.816;2022-08-07T05:00:38;13.10;99.90
58529;DHT22;44322;52.968;5.816;2022-08-07T05:03:26;13.10;99.90
58529;DHT22;44322;52.968;5.816;2022-08-07T05:06:02;13.10;99.90
58529;DHT22;44322;52.968;5.816;2022-08-07T05:11:19;13.20;99.90
58529;DHT22;44322;52.968;5.816;2022-08-07T05:14:18;13.20;99.90
58529;DHT22;44322;52.968;5.816;2022-08-07T05:16:45;13.30;99.90
58529;DHT22;44322;52.968;5.816;2022-08-07T05:19:19;13.30;99.90
58529;DHT22;44322;52.968;5.816;2022-08-07T05:21:54;13.40;99.90
58529;DHT22;44322;52.968;5.816;2022-08-07T05:24:21;13.40;99.90
58529;DHT22;44322;52.968;5.816;2022-08-07T05:26:52;13.50;99.90
58529;DHT22;44322;52.968;5.816;2022-08-07T05:29:21;13.60;99.90
58529;DHT22;44322;52.968;5.816;2022-08-07T05:31:48;13.70;99.90
58529;DHT22;44322;52.968;5.816;2022-08-07T05:34:17;13.80;99.90
58529;DHT22;44322;52.968;5.816;2022-08-07T05:36:48;13.90;99.90
58529;DHT22;44322;52.968;5.816;2022-08-07T05:39:41;14.00;99.90
58529;DHT22;44322;52.968;5.816;2022-08-07T05:42:08;14.00;99.90
58529;DHT22;44322;52.968;5.816;2022-08-07T05:44:36;14.10;99.90
58529;DHT22;44322;52.968;5.816;2022-08-07T05:47:05;14.20;99.90
58529;DHT22;44322;52.968;5.816;2022-08-07T05:49:32;14.20;99.90
58529;DHT22;44322;52.968;5.816;2022-08-07T05:51:58;14.30;99.90
58529;DHT22;44322;52.968;5.816;2022-08-07T05:54:27;14.30;99.90
58529;DHT22;44322;52.968;5.816;2022-08-07T05:56:54;14.40;99.90
58529;DHT22;44322;52.968;5.816;2022-08-07T05:59:22;14.40;99.90
58529;DHT22;44322;52.968;5.816;2022-08-07T06:01:56;14.50;99.90
58529;DHT22;44322;52.968;5.816;2022-08-07T06:04:22;14.50;99.90
58529;DHT22;44322;52.968;5.816;2022-08-07T06:06:49;14.60;99.90
58529;DHT22;44322;52.968;5.816;2022-08-07T06:09:17;14.60;99.90
58529;DHT22;44322;52.968;5.816;2022-08-07T06:11:45;14.70;99.90
58529;DHT22;44322;52.968;5.816;2022-08-07T06:14:12;14.70;99.90
58529;DHT22;44322;52.968;5.816;2022-08-07T06:16:38;14.80;99.90
58529;DHT22;44322;52.968;5.816;2022-08-07T06:19:07;14.90;99.90
58529;DHT22;44322;52.968;5.816;2022-08-07T06:21:34;14.90;99.90
58529;DHT22;44322;52.968;5.816;2022-08-07T06:24:02;15.10;99.90
58529;DHT22;44322;52.968;5.816;2022-08-07T06:26:28;15.10;99.90
58529;DHT22;44322;52.968;5.816;2022-08-07T06:28:57;15.30;99.90
58529;DHT22;44322;52.968;5.816;2022-08-07T06:31:26;15.40;99.90
58529;DHT22;44322;52.968;5.816;2022-08-07T06:33:54;15.60;99.90
58529;DHT22;44322;52.968;5.816;2022-08-07T06:36:20;15.70;99.90
58529;DHT22;44322;52.968;5.816;2022-08-07T06:38:56;15.80;99.90
58529;DHT22;44322;52.968;5.816;2022-08-07T06:41:28;15.90;99.90
58529;DHT22;44322;52.968;5.816;2022-08-07T06:43:56;15.90;99.90
58529;DHT22;44322;52.968;5.816;2022-08-07T06:46:24;16.00;99.90
58529;DHT22;44322;52.968;5.816;2022-08-07T06:48:51;16.00;99.90
58529;DHT22;44322;52.968;5.816;2022-08-07T06:51:23;16.00;99.90
58529;DHT22;44322;52.968;5.816;2022-08-07T06:53:52;16.00;99.90
58529;DHT22;44322;52.968;5.816;2022-08-07T06:56:20;16.00;99.90
58529;DHT22;44322;52.968;5.816;2022-08-07T06:59:07;16.10;99.90
58529;DHT22;44322;52.968;5.816;2022-08-07T07:01:37;16.10;99.90
58529;DHT22;44322;52.968;5.816;2022-08-07T07:04:04;16.10;99.90
58529;DHT22;44322;52.968;5.816;2022-08-07T07:06:31;16.10;99.90
58529;DHT22;44322;52.968;5.816;2022-08-07T07:09:18;16.20;99.90
58529;DHT22;44322;52.968;5.816;2022-08-07T07:14:46;16.30;99.90
58529;DHT22;44322;52.968;5.816;2022-08-07T07:17:25;16.30;99.90
58529;DHT22;44322;52.968;5.816;2022-08-07T07:19:56;16.40;99.90
58529;DHT22;44322;52.968;5.816;2022-08-07T07:22:25;16.40;99.90
58529;DHT22;44322;52.968;5.816;2022-08-07T07:24:51;16.50;99.90
58529;DHT22;44322;52.968;5.816;2022-08-07T07:27:20;16.50;99.90
58529;DHT22;44322;52.968;5.816;2022-08-07T07:29:49;16.50;99.90
58529;DHT22;44322;52.968;5.816;2022-08-07T07:32:16;16.60;99.90
58529;DHT22;44322;52.968;5.816;2022-08-07T07:34:46;16.60;99.90
58529;DHT22;44322;52.968;5.816;2022-08-07T07:37:14;16.70;99.90
58529;DHT22;44322;52.968;5.816;2022-08-07T07:39:41;16.70;99.90
58529;DHT22;44322;52.968;5.816;2022-08-07T07:42:09;16.80;99.90
58529;DHT22;44322;52.968;5.816;2022-08-07T07:44:38;16.80;99.90
58529;DHT22;44322;52.968;5.816;2022-08-07T07:47:05;16.90;99.90
58529;DHT22;44322;52.968;5.816;2022-08-07T07:49:33;16.90;99.90
58529;DHT22;44322;52.968;5.816;2022-08-07T07:52:02;17.00;99.90
58529;DHT22;44322;52.968;5.816;2022-08-07T07:54:28;17.00;99.90
58529;DHT22;44322;52.968;5.816;2022-08-07T07:56:56;17.10;99.90
58529;DHT22;44322;52.968;5.816;2022-08-07T07:59:24;17.10;99.90
58529;DHT22;44322;52.968;5.816;2022-08-07T08:01:51;17.10;99.90
58529;DHT22;44322;52.968;5.816;2022-08-07T08:04:18;17.20;99.90
58529;DHT22;44322;52.968;5.816;2022-08-07T08:06:46;17.20;99.90
58529;DHT22;44322;52.968;5.816;2022-08-07T08:09:15;17.30;99.90
58529;DHT22;44322;52.968;5.816;2022-08-07T08:11:42;17.30;99.90
58529;DHT22;44322;52.968;5.816;2022-08-07T08:14:08;17.30;99.90
58529;DHT22;44322;52.968;5.816;2022-08-07T08:16:39;17.40;99.90
58529;DHT22;44322;52.968;5.816;2022-08-07T08:19:07;17.40;99.90
58529;DHT22;44322;52.968;5.816;2022-08-07T08:21:38;17.40;99.90
58529;DHT22;44322;52.968;5.816;2022-08-07T08:24:24;17.50;99.90
58529;DHT22;44322;52.968;5.816;2022-08-07T08:27:10;17.60;99.90
58529;DHT22;44322;52.968;5.816;2022-08-07T08:29:51;17.70;99.90
58529;DHT22;44322;52.968;5.816;2022-08-07T08:32:24;17.70;99.90
58529;DHT22;44322;52.968;5.816;2022-08-07T08:34:52;17.80;99.90
58529;DHT22;44322;52.968;5.816;2022-08-07T08:37:20;17.90;99.90
58529;DHT22;44322;52.968;5.816;2022-08-07T08:39:47;18.00;99.90
58529;DHT22;44322;52.968;5.816;2022-08-07T08:42:29;18.10;99.90
58529;DHT22;44322;52.968;5.816;2022-08-07T08:45:09;18.30;99.90
58529;DHT22;44322;52.968;5.816;2022-08-07T08:50:47;18.50;99.90
58529;DHT22;44322;52.968;5.816;2022-08-07T08:53:38;18.60;99.90
58529;DHT22;44322;52.968;5.816;2022-08-07T08:59:24;18.90;99.90
58529;DHT22;44322;52.968;5.816;2022-08-07T09:02:18;19.10;99.90
58529;DHT22;44322;52.968;5.816;2022-08-07T09:05:25;19.20;99.90
58529;DHT22;44322;52.968;5.816;2022-08-07T09:07:56;19.10;99.90
58529;DHT22;44322;52.968;5.816;2022-08-07T09:10:45;19.00;99.90
58529;DHT22;44322;52.968;5.816;2022-08-07T09:16:07;18.90;99.90
58529;DHT22;44322;52.968;5.816;2022-08-07T09:27:08;19.50;99.90
58529;DHT22;44322;52.968;5.816;2022-08-07T09:29:38;19.70;99.90
58529;DHT22;44322;52.968;5.816;2022-08-07T09:32:30;19.90;99.90
58529;DHT22;44322;52.968;5.816;2022-08-07T09:38:05;19.90;98.20
58529;DHT22;44322;52.968;5.816;2022-08-07T09:55:02;20.20;93.90
58529;DHT22;44322;52.968;5.816;2022-08-07T09:57:49;20.30;92.70
58529;DHT22;44322;52.968;5.816;2022-08-07T10:00:20;20.40;90.50
58529;DHT22;44322;52.968;5.816;2022-08-07T10:05:25;20.50;93.30
58529;DHT22;44322;52.968;5.816;2022-08-07T10:22:15;21.00;92.70
58529;DHT22;44322;52.968;5.816;2022-08-07T10:25:03;21.10;92.30
58529;DHT22;44322;52.968;5.816;2022-08-07T10:28:02;21.20;92.30
58529;DHT22;44322;52.968;5.816;2022-08-07T10:31:02;21.30;92.60
58529;DHT22;44322;52.968;5.816;2022-08-07T10:39:04;21.60;85.70
58529;DHT22;44322;52.968;5.816;2022-08-07T10:42:05;21.70;90.40
58529;DHT22;44322;52.968;5.816;2022-08-07T10:45:00;21.70;83.00
58529;DHT22;44322;52.968;5.816;2022-08-07T10:50:30;21.60;86.80
58529;DHT22;44322;52.968;5.816;2022-08-07T10:56:26;22.20;89.70
58529;DHT22;44322;52.968;5.816;2022-08-07T11:04:51;23.90;76.60
58529;DHT22;44322;52.968;5.816;2022-08-07T11:10:03;24.00;65.90
58529;DHT22;44322;52.968;5.816;2022-08-07T11:12:47;23.70;64.30
58529;DHT22;44322;52.968;5.816;2022-08-07T11:15:21;23.50;62.70
58529;DHT22;44322;52.968;5.816;2022-08-07T11:17:59;23.40;65.60
58529;DHT22;44322;52.968;5.816;2022-08-07T11:25:41;24.20;60.40
58529;DHT22;44322;52.968;5.816;2022-08-07T11:28:19;24.60;61.90
58529;DHT22;44322;52.968;5.816;2022-08-07T11:33:48;25.20;56.30
58529;DHT22;44322;52.968;5.816;2022-08-07T11:36:50;25.40;57.20
58529;DHT22;44322;52.968;5.816;2022-08-07T11:42:25;26.10;56.80
58529;DHT22;44322;52.968;5.816;2022-08-07T11:45:25;26.50;52.10
58529;DHT22;44322;52.968;5.816;2022-08-07T11:57:40;26.90;51.90
58529;DHT22;44322;52.968;5.816;2022-08-07T12:04:24;27.70;48.80
58529;DHT22;44322;52.968;5.816;2022-08-07T12:07:05;27.90;48.60
58529;DHT22;44322;52.968;5.816;2022-08-07T12:09:45;27.90;48.90
58529;DHT22;44322;52.968;5.816;2022-08-07T12:12:18;27.90;45.40
58529;DHT22;44322;52.968;5.816;2022-08-07T12:15:10;27.90;46.30
58529;DHT22;44322;52.968;5.816;2022-08-07T12:18:34;28.00;44.40
58529;DHT22;44322;52.968;5.816;2022-08-07T12:20:47;28.10;45.90
58529;DHT22;44322;52.968;5.816;2022-08-07T12:23:39;28.50;43.50
58529;DHT22;44322;52.968;5.816;2022-08-07T12:26:28;28.50;43.00
58529;DHT22;44322;52.968;5.816;2022-08-07T12:31:48;28.90;42.50
58529;DHT22;44322;52.968;5.816;2022-08-07T12:34:17;29.30;42.00
58529;DHT22;44322;52.968;5.816;2022-08-07T12:36:45;29.80;41.00
58529;DHT22;44322;52.968;5.816;2022-08-07T12:39:12;30.00;39.30
58529;DHT22;44322;52.968;5.816;2022-08-07T12:41:40;30.00;39.50
58529;DHT22;44322;52.968;5.816;2022-08-07T12:44:07;30.00;39.80
58529;DHT22;44322;52.968;5.816;2022-08-07T12:52:15;30.50;39.50
58529;DHT22;44322;52.968;5.816;2022-08-07T12:57:18;30.80;37.80
58529;DHT22;44322;52.968;5.816;2022-08-07T12:59:47;31.00;37.00
58529;DHT22;44322;52.968;5.816;2022-08-07T13:02:41;31.20;37.10
58529;DHT22;44322;52.968;5.816;2022-08-07T13:08:34;30.80;37.50
58529;DHT22;44322;52.968;5.816;2022-08-07T13:11:27;30.90;37.90
58529;DHT22;44322;52.968;5.816;2022-08-07T13:17:10;31.80;36.90
58529;DHT22;44322;52.968;5.816;2022-08-07T13:22:30;32.70;36.80
58529;DHT22;44322;52.968;5.816;2022-08-07T13:25:18;32.80;36.00
58529;DHT22;44322;52.968;5.816;2022-08-07T13:27:52;33.00;37.30
58529;DHT22;44322;52.968;5.816;2022-08-07T13:30:21;33.00;36.10
58529;DHT22;44322;52.968;5.816;2022-08-07T13:35:53;32.90;36.00
58529;DHT22;44322;52.968;5.816;2022-08-07T13:38:28;32.70;35.90
58529;DHT22;44322;52.968;5.816;2022-08-07T13:43:44;32.70;35.40
58529;DHT22;44322;52.968;5.816;2022-08-07T13:46:13;32.40;36.10
58529;DHT22;44322;52.968;5.816;2022-08-07T13:48:45;32.20;36.10
58529;DHT22;44322;52.968;5.816;2022-08-07T13:51:14;32.10;36.30
58529;DHT22;44322;52.968;5.816;2022-08-07T13:53:45;32.10;35.90
58529;DHT22;44322;52.968;5.816;2022-08-07T13:56:22;32.00;36.20
58529;DHT22;44322;52.968;5.816;2022-08-07T13:58:52;32.10;35.90
58529;DHT22;44322;52.968;5.816;2022-08-07T14:01:41;32.30;36.40
58529;DHT22;44322;52.968;5.816;2022-08-07T14:04:15;32.50;35.60
58529;DHT22;44322;52.968;5.816;2022-08-07T14:06:48;32.80;35.10
58529;DHT22;44322;52.968;5.816;2022-08-07T14:09:27;32.80;35.20
58529;DHT22;44322;52.968;5.816;2022-08-07T14:11:58;32.60;35.50
58529;DHT22;44322;52.968;5.816;2022-08-07T14:14:29;31.90;36.10
58529;DHT22;44322;52.968;5.816;2022-08-07T14:16:59;31.30;37.50
58529;DHT22;44322;52.968;5.816;2022-08-07T14:19:46;30.60;37.50
58529;DHT22;44322;52.968;5.816;2022-08-07T14:22:25;29.90;38.20
58529;DHT22;44322;52.968;5.816;2022-08-07T14:24:58;29.20;38.70
58529;DHT22;44322;52.968;5.816;2022-08-07T14:27:32;28.40;39.60
58529;DHT22;44322;52.968;5.816;2022-08-07T14:30:03;27.90;40.60
58529;DHT22;44322;52.968;5.816;2022-08-07T14:32:41;27.50;41.50
58529;DHT22;44322;52.968;5.816;2022-08-07T14:35:20;27.10;42.30
58529;DHT22;44322;52.968;5.816;2022-08-07T14:37:49;26.90;43.10
58529;DHT22;44322;52.968;5.816;2022-08-07T14:40:21;26.70;42.90
58529;DHT22;44322;52.968;5.816;2022-08-07T14:43:05;26.60;43.50
58529;DHT22;44322;52.968;5.816;2022-08-07T14:45:54;26.40;44.20
58529;DHT22;44322;52.968;5.816;2022-08-07T14:48:29;26.20;44.60
58529;DHT22;44322;52.968;5.816;2022-08-07T14:50:58;26.10;44.80
58529;DHT22;44322;52.968;5.816;2022-08-07T14:53:29;25.90;45.20
58529;DHT22;44322;52.968;5.816;2022-08-07T14:55:55;25.90;45.70
58529;DHT22;44322;52.968;5.816;2022-08-07T14:58:26;25.80;45.60
58529;DHT22;44322;52.968;5.816;2022-08-07T15:00:53;25.80;46.30
58529;DHT22;44322;52.968;5.816;2022-08-07T15:03:21;25.70;45.40
58529;DHT22;44322;52.968;5.816;2022-08-07T15:05:48;25.60;46.60
58529;DHT22;44322;52.968;5.816;2022-08-07T15:08:21;25.60;45.80
58529;DHT22;44322;52.968;5.816;2022-08-07T15:11:00;25.50;46.20
58529;DHT22;44322;52.968;5.816;2022-08-07T15:13:28;25.40;46.40
58529;DHT22;44322;52.968;5.816;2022-08-07T15:16:03;25.30;46.80
58529;DHT22;44322;52.968;5.816;2022-08-07T15:18:42;25.20;47.20
58529;DHT22;44322;52.968;5.816;2022-08-07T15:21:30;25.20;47.50
58529;DHT22;44322;52.968;5.816;2022-08-07T15:24:00;25.10;48.00
58529;DHT22;44322;52.968;5.816;2022-08-07T15:26:50;25.00;47.80
58529;DHT22;44322;52.968;5.816;2022-08-07T15:29:20;24.90;48.50
58529;DHT22;44322;52.968;5.816;2022-08-07T15:31:49;24.90;48.60
58529;DHT22;44322;52.968;5.816;2022-08-07T15:34:17;24.90;48.70
58529;DHT22;44322;52.968;5.816;2022-08-07T15:36:45;24.90;48.90
58529;DHT22;44322;52.968;5.816;2022-08-07T15:39:13;24.80;48.80
58529;DHT22;44322;52.968;5.816;2022-08-07T15:42:00;24.70;49.20
58529;DHT22;44322;52.968;5.816;2022-08-07T15:44:29;24.70;50.30
58529;DHT22;44322;52.968;5.816;2022-08-07T15:47:02;24.60;50.20
58529;DHT22;44322;52.968;5.816;2022-08-07T15:49:32;24.60;50.80
58529;DHT22;44322;52.968;5.816;2022-08-07T15:52:01;24.60;51.10
58529;DHT22;44322;52.968;5.816;2022-08-07T15:54:34;24.60;51.00
58529;DHT22;44322;52.968;5.816;2022-08-07T15:57:06;24.50;51.40
58529;DHT22;44322;52.968;5.816;2022-08-07T15:59:34;24.40;52.10
58529;DHT22;44322;52.968;5.816;2022-08-07T16:02:04;24.40;53.00
58529;DHT22;44322;52.968;5.816;2022-08-07T16:04:33;24.40;54.20
58529;DHT22;44322;52.968;5.816;2022-08-07T16:07:03;24.50;54.30
58529;DHT22;44322;52.968;5.816;2022-08-07T16:10:05;24.50;54.80
58529;DHT22;44322;52.968;5.816;2022-08-07T16:17:57;24.20;54.90
58529;DHT22;44322;52.968;5.816;2022-08-07T16:20:48;24.20;58.50
58529;DHT22;44322;52.968;5.816;2022-08-07T16:26:11;24.10;63.00
58529;DHT22;44322;52.968;5.816;2022-08-07T16:29:08;24.10;65.20
58529;DHT22;44322;52.968;5.816;2022-08-07T16:31:45;24.10;69.40
58529;DHT22;44322;52.968;5.816;2022-08-07T16:37:26;23.80;71.00
58529;DHT22;44322;52.968;5.816;2022-08-07T16:50:51;23.70;73.20
58529;DHT22;44322;52.968;5.816;2022-08-07T16:56:18;23.50;74.90
58529;DHT22;44322;52.968;5.816;2022-08-07T16:59:00;23.50;77.30
58529;DHT22;44322;52.968;5.816;2022-08-07T17:01:34;23.40;78.20
58529;DHT22;44322;52.968;5.816;2022-08-07T17:04:17;23.40;78.60
58529;DHT22;44322;52.968;5.816;2022-08-07T17:09:55;23.40;77.20
58529;DHT22;44322;52.968;5.816;2022-08-07T17:20:29;23.20;76.10
58529;DHT22;44322;52.968;5.816;2022-08-07T17:34:37;22.90;79.70
58529;DHT22;44322;52.968;5.816;2022-08-07T17:37:10;22.80;80.70
58529;DHT22;44322;52.968;5.816;2022-08-07T17:45:16;22.50;82.30
58529;DHT22;44322;52.968;5.816;2022-08-07T17:47:58;22.50;83.30
58529;DHT22;44322;52.968;5.816;2022-08-07T17:50:48;22.40;84.80
58529;DHT22;44322;52.968;5.816;2022-08-07T17:53:24;22.30;86.90
58529;DHT22;44322;52.968;5.816;2022-08-07T18:07:00;22.10;90.30
58529;DHT22;44322;52.968;5.816;2022-08-07T18:09:37;22.10;91.10
58529;DHT22;44322;52.968;5.816;2022-08-07T18:12:39;22.00;90.60
58529;DHT22;44322;52.968;5.816;2022-08-07T18:15:20;22.00;90.70
58529;DHT22;44322;52.968;5.816;2022-08-07T18:17:55;21.90;91.40
58529;DHT22;44322;52.968;5.816;2022-08-07T18:20:27;21.80;91.80
58529;DHT22;44322;52.968;5.816;2022-08-07T18:23:06;21.70;92.10
58529;DHT22;44322;52.968;5.816;2022-08-07T18:25:34;21.60;92.80
58529;DHT22;44322;52.968;5.816;2022-08-07T18:29:02;21.60;92.80
58529;DHT22;44322;52.968;5.816;2022-08-07T18:36:36;21.30;93.80
58529;DHT22;44322;52.968;5.816;2022-08-07T18:39:10;21.30;94.40
58529;DHT22;44322;52.968;5.816;2022-08-07T18:44:57;21.10;94.90
58529;DHT22;44322;52.968;5.816;2022-08-07T18:47:52;21.00;95.30
58529;DHT22;44322;52.968;5.816;2022-08-07T18:56:11;20.80;96.10
58529;DHT22;44322;52.968;5.816;2022-08-07T19:01:45;20.70;97.10
58529;DHT22;44322;52.968;5.816;2022-08-07T19:04:20;20.60;97.20
58529;DHT22;44322;52.968;5.816;2022-08-07T19:06:53;20.50;98.00
58529;DHT22;44322;52.968;5.816;2022-08-07T19:09:41;20.50;98.70
58529;DHT22;44322;52.968;5.816;2022-08-07T19:12:19;20.40;98.90
58529;DHT22;44322;52.968;5.816;2022-08-07T19:18:13;20.30;99.90
58529;DHT22;44322;52.968;5.816;2022-08-07T19:23:53;20.20;99.90
58529;DHT22;44322;52.968;5.816;2022-08-07T19:26:24;20.10;99.90
58529;DHT22;44322;52.968;5.816;2022-08-07T19:28:58;20.00;99.90
58529;DHT22;44322;52.968;5.816;2022-08-07T19:31:31;20.00;99.90
58529;DHT22;44322;52.968;5.816;2022-08-07T19:34:00;19.90;99.90
58529;DHT22;44322;52.968;5.816;2022-08-07T19:36:33;19.90;99.90
58529;DHT22;44322;52.968;5.816;2022-08-07T19:39:03;19.80;99.90
58529;DHT22;44322;52.968;5.816;2022-08-07T19:41:33;19.80;99.90
58529;DHT22;44322;52.968;5.816;2022-08-07T19:44:05;19.70;99.90
58529;DHT22;44322;52.968;5.816;2022-08-07T19:46:38;19.70;99.90
58529;DHT22;44322;52.968;5.816;2022-08-07T19:49:07;19.60;99.90
58529;DHT22;44322;52.968;5.816;2022-08-07T19:51:34;19.60;99.90
58529;DHT22;44322;52.968;5.816;2022-08-07T19:54:03;19.50;99.90